Club Volo Ultraleggeri del Canavese

IT-0076 · 皮埃蒙特, 意大利

罗盘
风向 的 Club Volo Ultraleggeri del Canavese 13/31
风: 2 kt, 1 beaufort

1 kt

2 kt
改变
0 ft 1.000 2.000 3.000 4.000 5.000
Cloud Cloud
FEW 1.500
Cloud Cloud Cloud Cloud Cloud Cloud
BKN 4.000
METAR LIMF 020750Z VRB02KT 1800 -RA BR FEW015 BKN040 09/09 Q1008

METAR Club Volo Ultraleggeri del Canavese - IT-0076

Club Volo Ultraleggeri del Canavese是,意大利中的小机场。 该机场位于纬度45,35878和经度7,71936。 该机场有一条跑道: 13/31. 这个机场没有ICAO代码,我们使用IT-0076作为参考。 机场在Milano FIR中。

该航空气象观测是针对Turin Airport在2024年3月2日 08:50, 当地时间进行的。

机场观察

可变方向的风很小或没有风。

可见度为1,8 km。

有几云在1.500 ft的高度 和 碎云在4.000 ft的高度。 破损或更高的上限为4.000 ft。

当前天气为光 雨, 薄雾。 温度为9 °C,阵风为8 °C。 露点为9 °C,相对湿度为100%。 海平面上的气压为1008 hPa (QNH)。

白天

今天,太阳从07:04升起,在18:17降落。 这适用于Club Volo Ultraleggeri del Canavese,世界夏令时可能有所不同。 当地时间与世界标准时间之间的时差为+1 小时。 当前,没有夏令时有效。

公司介绍

我们没有关于这个机场的公司信息。

体会

到Vliegles.nl去找飞行课程,跳伞和其他飞行体验。 浏览页面,了解Club Volo Ultraleggeri del Canavese附近所有可用的活动。 你也可以使用搜索功能来寻找你所在地附近的特定飞行课程、跳伞或其他飞行体验。

跑道

Id 标题 侧风 逆风 侧风 %
13/31 130°-310° 2 kt 1 kt 77 %

逆风成分最大的方向会被突出显示,并用于横风计算。 这并不一定意味着这个方向在使用。

乌云

1.500 ft FEW 几云
4.000 ft BKN 碎云

温度 & 天气

天气 光 雨
薄雾
温度 9 °C
露点 9 °C
相对湿度 100%
风寒 8 °C
Kp-index 1 (0-9)

白天

日出
07:04
中午
12:41
日落
18:18 (9:10)

小工具

你想在你的网站上有一个关于Club Volo Ultraleggeri del Canavese的当前航空天气(METAR)的小部件吗?

显示HTML代码
?>